createdAt,value
2023-07-15T00:01:50.267Z,0.66
2023-07-15T00:03:45.847Z,0.66
2023-07-15T00:05:45.852Z,0.66
2023-07-15T00:07:45.611Z,0.66
2023-07-15T00:09:45.616Z,0.66
2023-07-15T00:11:45.695Z,0.66
2023-07-15T00:13:45.063Z,0.66
2023-07-15T00:15:46.864Z,0.66
2023-07-15T00:17:46.125Z,0.66
2023-07-15T00:19:44.846Z,0.66
2023-07-15T00:21:45.754Z,0.66
2023-07-15T00:23:46.448Z,0.66
2023-07-15T00:25:45.673Z,0.66
2023-07-15T00:27:45.784Z,0.66
2023-07-15T00:29:44.879Z,0.66
2023-07-15T00:31:46.199Z,0.66
2023-07-15T00:33:46.038Z,0.66
2023-07-15T00:35:45.067Z,0.66
2023-07-15T00:37:46.187Z,0.66
2023-07-15T00:39:45.791Z,0.66
2023-07-15T00:41:45.409Z,0.66
2023-07-15T00:43:48.646Z,0.66
2023-07-15T00:45:45.263Z,0.66
2023-07-15T00:47:46.342Z,0.66
2023-07-15T00:49:45.854Z,0.66
2023-07-15T00:51:45.361Z,0.66
2023-07-15T00:53:44.783Z,0.66
2023-07-15T00:55:45.524Z,0.66
2023-07-15T00:57:45.835Z,0.66
2023-07-15T00:59:45.782Z,0.66
2023-07-15T01:01:49.535Z,0.66
2023-07-15T01:03:46.531Z,0.66
2023-07-15T01:05:44.818Z,0.66
2023-07-15T01:07:46.189Z,0.66
2023-07-15T01:09:45.408Z,0.66
2023-07-15T01:11:46.079Z,0.66
2023-07-15T01:13:45.141Z,0.66
2023-07-15T01:15:44.937Z,0.66
2023-07-15T01:17:46.846Z,0.66
2023-07-15T01:19:45.174Z,0.66
2023-07-15T01:21:45.661Z,0.66
2023-07-15T01:23:45.466Z,0.66
2023-07-15T01:25:44.950Z,0.66
2023-07-15T01:27:45.961Z,0.66
2023-07-15T01:29:45.510Z,0.66
2023-07-15T01:31:45.648Z,0.66
2023-07-15T01:33:45.044Z,0.66
2023-07-15T01:35:45.541Z,0.66
2023-07-15T01:37:45.886Z,0.66
2023-07-15T01:39:44.949Z,0.66
2023-07-15T01:41:45.621Z,0.66
2023-07-15T01:43:44.951Z,0.66
2023-07-15T01:45:45.858Z,0.66
2023-07-15T01:47:46.749Z,0.66
2023-07-15T01:49:47.055Z,0.66
2023-07-15T01:51:45.504Z,0.66
2023-07-15T01:53:45.078Z,0.66
2023-07-15T01:55:45.654Z,0.66
2023-07-15T01:57:45.923Z,0.66
2023-07-15T01:59:44.798Z,0.66
2023-07-15T02:01:53.205Z,0.66
2023-07-15T02:03:47.352Z,0.66
2023-07-15T02:05:45.265Z,0.66
2023-07-15T02:07:46.570Z,0.66
2023-07-15T02:09:46.016Z,0.66
2023-07-15T02:11:45.256Z,0.66
2023-07-15T02:13:44.820Z,0.66
2023-07-15T02:15:45.604Z,0.66
2023-07-15T02:17:46.231Z,0.66
2023-07-15T02:19:45.697Z,0.66
2023-07-15T02:21:45.681Z,0.66
2023-07-15T02:23:45.296Z,0.66
2023-07-15T02:25:45.425Z,0.66
2023-07-15T02:27:45.426Z,0.66
2023-07-15T02:29:45.590Z,0.66
2023-07-15T02:31:45.873Z,0.66
2023-07-15T02:33:45.115Z,0.66
2023-07-15T02:35:45.798Z,0.66
2023-07-15T02:37:46.057Z,0.66
2023-07-15T02:39:45.070Z,0.66
2023-07-15T02:41:45.107Z,0.66
2023-07-15T02:43:45.674Z,0.66
2023-07-15T02:45:45.245Z,0.66
2023-07-15T02:47:49.247Z,0.66
2023-07-15T02:49:45.315Z,0.66
2023-07-15T02:51:45.246Z,0.66
2023-07-15T02:53:45.580Z,0.66
2023-07-15T02:55:45.169Z,0.66
2023-07-15T02:57:45.647Z,0.66
2023-07-15T02:59:45.706Z,0.66
2023-07-15T03:01:49.269Z,0.66
2023-07-15T03:03:45.553Z,0.66
2023-07-15T03:05:46.289Z,0.66
2023-07-15T03:07:45.620Z,0.66
2023-07-15T03:09:48.140Z,0.66
2023-07-15T03:11:45.595Z,0.66
2023-07-15T03:13:45.276Z,0.66
2023-07-15T03:15:44.680Z,0.66
2023-07-15T03:17:46.754Z,0.66
2023-07-15T03:19:45.131Z,0.66
2023-07-15T03:21:45.644Z,0.66
2023-07-15T03:23:45.426Z,0.66
2023-07-15T03:25:45.517Z,0.66
2023-07-15T03:27:45.813Z,0.66
2023-07-15T03:29:44.808Z,0.66
2023-07-15T03:31:45.627Z,0.66
2023-07-15T03:33:45.353Z,0.66
2023-07-15T03:35:47.816Z,0.66
2023-07-15T03:37:45.186Z,0.66
2023-07-15T03:39:44.873Z,0.66
2023-07-15T03:41:45.861Z,0.66
2023-07-15T03:43:45.372Z,0.66
2023-07-15T03:45:44.886Z,0.66
2023-07-15T03:47:46.611Z,0.66
2023-07-15T03:49:45.195Z,0.66
2023-07-15T03:51:45.932Z,0.66
2023-07-15T03:53:45.224Z,0.66
2023-07-15T03:55:44.855Z,0.66
2023-07-15T03:57:45.872Z,0.66
2023-07-15T03:59:45.281Z,0.66
2023-07-15T04:01:48.741Z,0.66
2023-07-15T04:03:45.768Z,0.66
2023-07-15T04:05:45.445Z,0.66
2023-07-15T04:07:45.455Z,0.66
2023-07-15T04:09:45.588Z,0.66
2023-07-15T04:11:45.144Z,0.66
2023-07-15T04:13:44.886Z,0.66
2023-07-15T04:15:45.562Z,0.66
2023-07-15T04:17:46.590Z,0.66
2023-07-15T04:19:45.847Z,0.66
2023-07-15T04:21:46.044Z,0.66
2023-07-15T04:23:45.564Z,0.66
2023-07-15T04:25:45.620Z,0.66
2023-07-15T04:27:46.470Z,0.66
2023-07-15T04:29:45.502Z,0.66
2023-07-15T04:31:45.723Z,0.66
2023-07-15T04:33:45.213Z,0.66
2023-07-15T04:35:46.505Z,0.66
2023-07-15T04:37:45.727Z,0.66
2023-07-15T04:39:44.825Z,0.66
2023-07-15T04:41:45.601Z,0.66
2023-07-15T04:43:45.694Z,0.66
2023-07-15T04:45:45.238Z,0.66
2023-07-15T04:47:46.055Z,0.66
2023-07-15T04:49:45.670Z,0.66
2023-07-15T04:51:45.136Z,0.66
2023-07-15T04:53:44.939Z,0.66
2023-07-15T04:55:45.552Z,0.66
2023-07-15T04:57:45.375Z,0.66
2023-07-15T04:59:45.461Z,0.66
2023-07-15T05:01:50.560Z,0.66
2023-07-15T05:03:46.397Z,0.66
2023-07-15T05:05:45.317Z,0.66
2023-07-15T05:08:07.483Z,0.66
2023-07-15T05:09:45.203Z,0.66
2023-07-15T05:11:46.113Z,0.66
2023-07-15T05:13:45.452Z,0.66
2023-07-15T05:15:45.161Z,0.66
2023-07-15T05:17:46.151Z,0.66
2023-07-15T05:19:45.260Z,0.66
2023-07-15T05:21:45.828Z,0.66
2023-07-15T05:23:45.824Z,0.66
2023-07-15T05:25:49.600Z,0.66
2023-07-15T05:27:45.339Z,0.66
2023-07-15T05:29:44.977Z,0.66
2023-07-15T05:31:49.097Z,0.66
2023-07-15T05:33:45.669Z,0.66
2023-07-15T05:35:45.074Z,0.66
2023-07-15T05:37:45.395Z,0.66
2023-07-15T05:39:46.642Z,0.66
2023-07-15T05:41:45.905Z,0.66
2023-07-15T05:43:45.427Z,0.66
2023-07-15T05:45:45.028Z,0.66
2023-07-15T05:47:46.025Z,0.66
2023-07-15T05:49:47.254Z,0.66
2023-07-15T05:51:45.249Z,0.66
2023-07-15T05:53:45.635Z,0.66
2023-07-15T05:55:44.905Z,0.66
2023-07-15T05:57:45.581Z,0.66
2023-07-15T05:59:45.488Z,0.66
2023-07-15T06:01:46.853Z,0.66
2023-07-15T06:03:46.857Z,0.66
2023-07-15T06:05:45.411Z,0.66
2023-07-15T06:07:45.689Z,0.66
2023-07-15T06:09:45.546Z,0.66
2023-07-15T06:11:45.486Z,0.66
2023-07-15T06:13:46.648Z,0.66
2023-07-15T06:15:45.146Z,0.66
2023-07-15T06:17:46.251Z,0.66
2023-07-15T06:19:45.491Z,0.66
2023-07-15T06:21:46.345Z,0.66
2023-07-15T06:23:49.940Z,0.66
2023-07-15T06:25:44.797Z,0.66
2023-07-15T06:27:46.176Z,0.66
2023-07-15T06:29:45.352Z,0.66
2023-07-15T06:31:49.829Z,0.66
2023-07-15T06:33:45.327Z,0.66
2023-07-15T06:35:45.648Z,0.66
2023-07-15T06:37:45.510Z,0.66
2023-07-15T06:39:45.217Z,0.66
2023-07-15T06:41:45.476Z,0.66
2023-07-15T06:43:44.821Z,0.66
2023-07-15T06:45:46.322Z,0.66
2023-07-15T06:47:45.816Z,0.66
2023-07-15T06:49:45.780Z,0.66
2023-07-15T06:51:44.984Z,0.66
2023-07-15T06:53:45.565Z,0.66
2023-07-15T06:55:45.167Z,0.66
2023-07-15T06:59:45.470Z,0.66
2023-07-15T07:01:51.414Z,0.66
2023-07-15T07:03:45.767Z,0.66
2023-07-15T07:05:45.431Z,0.66
2023-07-15T07:07:45.233Z,0.66
2023-07-15T07:09:45.336Z,0.66
2023-07-15T07:11:45.147Z,0.66
2023-07-15T07:13:45.675Z,0.66
2023-07-15T07:15:45.329Z,0.66
2023-07-15T07:17:45.944Z,0.66
2023-07-15T07:19:46.375Z,0.66
2023-07-15T07:21:49.093Z,0.66
2023-07-15T07:23:45.492Z,0.66
2023-07-15T07:25:46.673Z,0.66
2023-07-15T07:27:45.087Z,0.66
2023-07-15T07:29:44.681Z,0.66
2023-07-15T07:31:46.481Z,0.66
2023-07-15T07:33:45.360Z,0.66
2023-07-15T07:35:45.706Z,0.66
2023-07-15T07:37:47.635Z,0.66
2023-07-15T07:39:45.537Z,0.66
2023-07-15T07:41:45.604Z,0.66
2023-07-15T07:43:47.132Z,0.66
2023-07-15T07:45:45.420Z,0.66
2023-07-15T07:47:46.507Z,0.66
2023-07-15T07:49:47.243Z,0.66
2023-07-15T07:51:45.476Z,0.66
2023-07-15T07:53:44.940Z,0.66
2023-07-15T07:55:47.010Z,0.66
2023-07-15T07:57:45.130Z,0.66
2023-07-15T07:59:45.481Z,0.66
2023-07-15T08:01:49.735Z,0.66
2023-07-15T08:03:47.249Z,0.66
2023-07-15T08:05:45.927Z,0.66
2023-07-15T08:07:44.757Z,0.66
2023-07-15T08:09:45.353Z,0.66
2023-07-15T08:11:45.125Z,0.66
2023-07-15T08:13:45.622Z,0.66
2023-07-15T08:15:45.233Z,0.66
2023-07-15T08:17:46.537Z,0.66
2023-07-15T08:19:45.295Z,0.66
2023-07-15T08:21:46.054Z,0.66
2023-07-15T08:23:46.353Z,0.66
2023-07-15T08:25:44.883Z,0.66
2023-07-15T08:27:45.542Z,0.66
2023-07-15T08:29:45.476Z,0.66
2023-07-15T08:31:45.648Z,0.66
2023-07-15T08:33:46.556Z,0.66
2023-07-15T08:35:45.038Z,0.66
2023-07-15T08:37:44.833Z,0.66
2023-07-15T08:39:45.479Z,0.66
2023-07-15T08:41:45.448Z,0.66
2023-07-15T08:43:47.543Z,0.66
2023-07-15T08:45:45.374Z,0.66
2023-07-15T08:47:46.262Z,0.66
2023-07-15T08:49:45.840Z,0.66
2023-07-15T08:51:45.631Z,0.66
2023-07-15T08:53:45.072Z,0.66
2023-07-15T08:55:46.036Z,0.66
2023-07-15T08:57:45.041Z,0.66
2023-07-15T08:59:45.479Z,0.66
2023-07-15T09:01:54.917Z,0.66
2023-07-15T09:03:46.269Z,0.66
2023-07-15T09:05:46.459Z,0.66
2023-07-15T09:07:45.042Z,0.66
2023-07-15T09:09:45.641Z,0.66
2023-07-15T09:11:45.499Z,0.66
2023-07-15T09:13:45.277Z,0.66
2023-07-15T09:15:52.293Z,0.66
2023-07-15T09:17:46.412Z,0.66
2023-07-15T09:19:45.982Z,0.66
2023-07-15T09:21:46.527Z,0.66
2023-07-15T09:23:45.392Z,0.66
2023-07-15T09:25:45.405Z,0.66
2023-07-15T09:27:48.350Z,0.66
2023-07-15T09:29:45.573Z,0.66
2023-07-15T09:31:45.581Z,0.66
2023-07-15T09:33:45.935Z,0.66
2023-07-15T09:35:45.420Z,0.66
2023-07-15T09:37:45.612Z,0.66
2023-07-15T09:39:45.386Z,0.66
2023-07-15T09:41:45.228Z,0.66
2023-07-15T09:43:45.512Z,0.66
2023-07-15T09:45:45.352Z,0.66
2023-07-15T09:47:45.444Z,0.66
2023-07-15T09:49:45.581Z,0.66
2023-07-15T09:51:45.192Z,0.66
2023-07-15T09:53:44.872Z,0.66
2023-07-15T09:55:45.498Z,0.66
2023-07-15T09:57:45.035Z,0.66
2023-07-15T09:59:45.640Z,0.66
2023-07-15T10:01:49.510Z,0.66
2023-07-15T10:03:48.429Z,0.66
2023-07-15T10:05:45.928Z,0.66
2023-07-15T10:07:45.207Z,0.66
2023-07-15T10:09:49.522Z,0.66
2023-07-15T10:11:45.868Z,0.66
2023-07-15T10:13:45.309Z,0.66
2023-07-15T10:15:45.934Z,0.66
2023-07-15T10:17:45.895Z,0.66
2023-07-15T10:19:45.945Z,0.66
2023-07-15T10:21:48.842Z,0.66
2023-07-15T10:23:45.617Z,0.66
2023-07-15T10:25:45.779Z,0.66
2023-07-15T10:27:45.580Z,0.66
2023-07-15T10:29:49.768Z,0.66
2023-07-15T10:32:04.661Z,0.66
2023-07-15T10:33:47.354Z,0.66
2023-07-15T10:35:45.308Z,0.66
2023-07-15T10:37:44.795Z,0.66
2023-07-15T10:39:47.721Z,0.66
2023-07-15T10:41:45.350Z,0.66
2023-07-15T10:43:45.824Z,0.66
2023-07-15T10:45:45.288Z,0.66
2023-07-15T10:47:47.419Z,0.66
2023-07-15T10:49:46.355Z,0.66
2023-07-15T10:51:45.382Z,0.66
2023-07-15T10:53:45.738Z,0.66
2023-07-15T10:55:45.556Z,0.66
2023-07-15T10:58:05.614Z,0.66
2023-07-15T10:59:45.458Z,0.66
2023-07-15T11:01:46.244Z,0.66
2023-07-15T11:03:46.202Z,0.66
2023-07-15T11:05:46.374Z,0.66
2023-07-15T11:07:46.768Z,0.66
2023-07-15T11:09:45.717Z,0.66
2023-07-15T11:11:45.529Z,0.66
2023-07-15T11:13:44.614Z,0.66
2023-07-15T11:15:45.648Z,0.66
2023-07-15T11:17:46.177Z,0.66
2023-07-15T11:19:45.969Z,0.66
2023-07-15T11:21:45.712Z,0.66
2023-07-15T11:23:45.866Z,0.66
2023-07-15T11:25:45.676Z,0.66
2023-07-15T11:27:46.576Z,0.66
2023-07-15T11:29:45.246Z,0.66
2023-07-15T11:31:46.606Z,0.66
2023-07-15T11:33:45.347Z,0.66
2023-07-15T11:35:47.776Z,0.66
2023-07-15T11:37:46.160Z,0.66
2023-07-15T11:39:45.166Z,0.66
2023-07-15T11:41:49.594Z,0.66
2023-07-15T11:43:45.344Z,0.66
2023-07-15T11:45:49.079Z,0.66
2023-07-15T11:47:46.932Z,0.66
2023-07-15T11:49:45.902Z,0.66
2023-07-15T11:51:45.877Z,0.66
2023-07-15T11:53:45.336Z,0.66
2023-07-15T11:55:45.341Z,0.66
2023-07-15T11:57:46.603Z,0.66
2023-07-15T11:59:45.301Z,0.66
2023-07-15T12:03:50.211Z,0.66
2023-07-15T12:05:45.688Z,0.66
2023-07-15T12:07:48.379Z,0.66
2023-07-15T12:09:45.333Z,0.66
2023-07-15T12:11:45.274Z,0.66
2023-07-15T12:13:46.820Z,0.66
2023-07-15T12:15:45.622Z,212.94
2023-07-15T12:17:46.452Z,212.94
2023-07-15T12:19:48.535Z,212.94
2023-07-15T12:21:45.025Z,11262.7
2023-07-15T12:23:46.076Z,11262.7
2023-07-15T12:25:45.538Z,11262.7
2023-07-15T12:27:45.745Z,11262.7
2023-07-15T12:29:45.408Z,11262.7
2023-07-15T12:31:49.943Z,11262.7
2023-07-15T12:33:45.829Z,11262.7
2023-07-15T12:35:49.081Z,11262.7
2023-07-15T12:37:44.741Z,11262.7
2023-07-15T12:39:45.593Z,11262.7
2023-07-15T12:41:45.394Z,11262.7
2023-07-15T12:43:45.674Z,11262.7
2023-07-15T12:45:45.245Z,11262.7
2023-07-15T12:47:46.339Z,11262.7
2023-07-15T12:49:45.676Z,11262.7
2023-07-15T12:51:45.533Z,11262.7
2023-07-15T12:53:44.924Z,11262.7
2023-07-15T12:55:45.467Z,11262.7
2023-07-15T12:57:45.449Z,11262.7
2023-07-15T12:59:48.428Z,11262.7
2023-07-15T13:01:49.024Z,11262.7
2023-07-15T13:03:46.158Z,11262.7
2023-07-15T13:05:49.632Z,11262.7
2023-07-15T13:07:44.966Z,11262.7
2023-07-15T13:09:45.420Z,11262.7
2023-07-15T13:11:45.482Z,11262.7
2023-07-15T13:13:46.918Z,11262.7
2023-07-15T13:15:45.628Z,11262.7
2023-07-15T13:17:46.873Z,11262.7
2023-07-15T13:19:44.756Z,11262.7
2023-07-15T13:21:46.147Z,11262.7
2023-07-15T13:23:45.788Z,11262.7
2023-07-15T13:25:45.563Z,11262.7
2023-07-15T13:27:45.425Z,11262.7
2023-07-15T13:29:45.090Z,11262.7
2023-07-15T13:31:46.327Z,11262.7
2023-07-15T13:33:46.012Z,11262.7
2023-07-15T13:35:45.187Z,11262.7
2023-07-15T13:37:45.588Z,11262.7
2023-07-15T13:39:47.085Z,11262.7
2023-07-15T13:41:45.290Z,11262.7
2023-07-15T13:43:45.833Z,11262.7
2023-07-15T13:45:48.975Z,11262.7
2023-07-15T13:47:46.005Z,11262.7
2023-07-15T13:49:47.881Z,11262.7
2023-07-15T13:51:44.980Z,11262.7
2023-07-15T13:53:45.669Z,11262.7
2023-07-15T13:55:45.096Z,11262.7
2023-07-15T13:57:45.618Z,11262.7
2023-07-15T13:59:45.610Z,11262.7
2023-07-15T14:01:58.007Z,11262.7
2023-07-15T14:03:45.871Z,11262.7
2023-07-15T14:05:45.455Z,11262.7
2023-07-15T14:07:46.103Z,11262.7
2023-07-15T14:09:45.321Z,11262.7
2023-07-15T14:11:45.152Z,11262.7
2023-07-15T14:13:48.567Z,11262.7
2023-07-15T14:15:45.189Z,11262.7
2023-07-15T14:17:45.700Z,11262.7
2023-07-15T14:19:45.358Z,11262.7
2023-07-15T14:21:45.242Z,11262.7
2023-07-15T14:25:45.772Z,11262.7
2023-07-15T14:27:45.573Z,11262.7
2023-07-15T14:29:45.012Z,11262.7
2023-07-15T14:31:46.464Z,11262.7
2023-07-15T14:33:48.161Z,11262.7
2023-07-15T14:35:45.283Z,11262.7
2023-07-15T14:37:46.055Z,11262.7
2023-07-15T14:43:46.051Z,11262.7
2023-07-15T14:45:57.486Z,11262.7
2023-07-15T14:47:45.607Z,11262.7
2023-07-15T14:49:49.141Z,11262.7
2023-07-15T14:51:45.112Z,11262.7
2023-07-15T14:53:44.767Z,11262.7
2023-07-15T14:55:48.190Z,11262.7
2023-07-15T14:57:45.116Z,11262.7
2023-07-15T14:59:45.619Z,11262.7
2023-07-15T15:01:54.156Z,11262.7
2023-07-15T15:03:45.863Z,11262.7
2023-07-15T15:05:45.909Z,11262.7
2023-07-15T15:07:48.187Z,11262.7
2023-07-15T15:09:45.667Z,11262.7
2023-07-15T15:11:45.373Z,11262.7
2023-07-15T15:13:50.061Z,11262.7
2023-07-15T15:15:45.463Z,11262.7
2023-07-15T15:17:45.840Z,11262.7
2023-07-15T15:19:49.335Z,11262.7
2023-07-15T15:21:45.363Z,11262.7
2023-07-15T15:23:45.467Z,11262.7
2023-07-15T15:25:50.263Z,11262.7
2023-07-15T15:27:45.419Z,11262.7
2023-07-15T15:29:44.829Z,11262.7
2023-07-15T15:31:47.932Z,11262.7
2023-07-15T15:33:46.479Z,11262.7
2023-07-15T15:35:46.207Z,11262.7
2023-07-15T15:37:45.960Z,11262.7
2023-07-15T15:39:44.923Z,11262.7
2023-07-15T15:41:45.779Z,11262.7
2023-07-15T15:43:45.261Z,11262.7
2023-07-15T15:45:44.997Z,11262.7
2023-07-15T15:47:45.978Z,11262.7
2023-07-15T15:49:48.824Z,11262.7
2023-07-15T15:51:44.848Z,11262.7
2023-07-15T15:53:45.649Z,11262.7
2023-07-15T15:55:45.366Z,11262.7
2023-07-15T15:57:44.819Z,11262.7
2023-07-15T15:59:45.490Z,11262.7
2023-07-15T16:01:45.575Z,11262.7
2023-07-15T16:03:46.624Z,11262.7
2023-07-15T16:05:45.950Z,11262.7
2023-07-15T16:07:45.769Z,11262.7
2023-07-15T16:09:45.573Z,11262.7
2023-07-15T16:11:45.758Z,11262.7
2023-07-15T16:13:47.531Z,11262.7
2023-07-15T16:15:45.565Z,11262.7
2023-07-15T16:17:45.592Z,11262.7
2023-07-15T16:19:47.108Z,11262.7
2023-07-15T16:21:45.628Z,11262.7
2023-07-15T16:23:45.308Z,11262.7
2023-07-15T16:25:45.325Z,11262.7
2023-07-15T16:27:45.137Z,11262.7
2023-07-15T16:29:45.754Z,60.06
2023-07-15T16:31:48.768Z,60.06
2023-07-15T16:33:46.741Z,60.06
2023-07-15T16:35:45.201Z,6.42
2023-07-15T16:37:47.935Z,6.42
2023-07-15T16:39:45.277Z,6.42
2023-07-15T16:41:45.261Z,976.82
2023-07-15T16:43:47.384Z,2.49
2023-07-15T16:45:44.833Z,2.49
2023-07-15T16:47:46.103Z,591.48
2023-07-15T16:49:46.377Z,591.48
2023-07-15T16:51:45.079Z,591.48
2023-07-15T16:53:45.607Z,1.22
2023-07-15T16:55:45.258Z,1.22
2023-07-15T16:57:46.359Z,1.22
2023-07-15T16:59:45.924Z,356.22
2023-07-15T17:01:53.388Z,356.22
2023-07-15T17:03:46.616Z,356.22
2023-07-15T17:05:45.168Z,281.54
2023-07-15T17:07:45.424Z,281.54
2023-07-15T17:09:45.331Z,281.54
2023-07-15T17:11:46.080Z,243.95
2023-07-15T17:13:45.199Z,243.95
2023-07-15T17:15:45.124Z,243.95
2023-07-15T17:17:46.289Z,0.59
2023-07-15T17:19:45.131Z,0.59
2023-07-15T17:21:45.707Z,0.59
2023-07-15T17:23:45.687Z,193.97
2023-07-15T17:25:44.981Z,193.97
2023-07-15T17:27:45.834Z,193.97
2023-07-15T17:29:45.387Z,0.47
2023-07-15T17:31:46.127Z,171.69
2023-07-15T17:33:48.245Z,171.69
2023-07-15T17:35:45.110Z,0.44
2023-07-15T17:37:46.018Z,157.79
2023-07-15T17:39:45.461Z,157.79
2023-07-15T17:41:45.173Z,0.42
2023-07-15T17:43:46.904Z,0.42
2023-07-15T17:45:45.564Z,0.42
2023-07-15T17:47:49.088Z,132.17
2023-07-15T17:49:45.436Z,132.17
2023-07-15T17:51:45.566Z,132.17
2023-07-15T17:53:49.387Z,0.35
2023-07-15T17:56:00.842Z,0.35
2023-07-15T17:57:45.028Z,0.35
2023-07-15T17:59:45.693Z,126.21
2023-07-15T18:01:52.267Z,0.35
2023-07-15T18:03:48.201Z,0.35
2023-07-15T18:05:45.172Z,126.21
2023-07-15T18:07:45.201Z,0.33
2023-07-15T18:09:49.810Z,0.33
2023-07-15T18:11:45.372Z,114.8
2023-07-15T18:13:45.245Z,0.32
2023-07-15T18:15:45.883Z,0.32
2023-07-15T18:17:49.041Z,0.3
2023-07-15T18:19:44.692Z,0.3
2023-07-15T18:21:46.425Z,0.3
2023-07-15T18:23:45.819Z,93.94
2023-07-15T18:25:45.986Z,0.26
2023-07-15T18:27:45.979Z,0.26
2023-07-15T18:29:45.072Z,73.47
2023-07-15T18:31:46.383Z,71.38
2023-07-15T18:33:46.077Z,71.38
2023-07-15T18:37:45.077Z,0.17
2023-07-15T18:39:44.732Z,0.17
2023-07-15T18:41:45.857Z,0.16
2023-07-15T18:43:45.155Z,0.15
2023-07-15T18:45:45.726Z,0.15
2023-07-15T18:47:45.507Z,0.14
2023-07-15T18:49:46.075Z,50.76
2023-07-15T18:51:49.344Z,50.76
2023-07-15T18:53:44.856Z,45.85
2023-07-15T18:55:45.444Z,0.12
2023-07-15T18:57:58.562Z,0.12
2023-07-15T18:59:44.874Z,42.74
2023-07-15T19:01:49.587Z,0.12
2023-07-15T19:03:46.060Z,0.12
2023-07-15T19:05:45.107Z,0.12
2023-07-15T19:07:45.401Z,0.12
2023-07-15T19:09:45.187Z,0.12
2023-07-15T19:11:49.205Z,0.12
2023-07-15T19:13:45.269Z,0.12
2023-07-15T19:15:45.004Z,0.12
2023-07-15T19:17:47.416Z,0.12
2023-07-15T19:19:45.501Z,0.12
2023-07-15T19:21:45.239Z,0.12
2023-07-15T19:23:48.596Z,0.12
2023-07-15T19:25:45.318Z,0.12
2023-07-15T19:27:45.127Z,0.12
2023-07-15T19:29:45.657Z,0.12
2023-07-15T19:31:46.180Z,0.12
2023-07-15T19:33:46.954Z,0.12
2023-07-15T19:35:45.564Z,0.12
2023-07-15T19:37:45.315Z,0.12
2023-07-15T19:39:45.462Z,0.12
2023-07-15T19:41:45.705Z,0.12
2023-07-15T19:43:45.470Z,0.12
2023-07-15T19:45:47.056Z,0.12
2023-07-15T19:47:47.260Z,0.12
2023-07-15T19:49:45.155Z,0.12
2023-07-15T19:52:06.683Z,0.12
2023-07-15T19:53:48.983Z,0.12
2023-07-15T19:55:45.128Z,0.12
2023-07-15T19:57:46.269Z,0.12
2023-07-15T19:59:45.235Z,0.12
2023-07-15T20:01:49.402Z,0.12
2023-07-15T20:03:46.486Z,0.12
2023-07-15T20:05:45.674Z,0.12
2023-07-15T20:07:45.256Z,0.12
2023-07-15T20:09:45.364Z,0.12
2023-07-15T20:11:45.341Z,0.12
2023-07-15T20:13:44.921Z,0.12
2023-07-15T20:15:45.596Z,0.12
2023-07-15T20:17:46.727Z,0.12
2023-07-15T20:19:45.794Z,0.12
2023-07-15T20:21:47.618Z,0.12
2023-07-15T20:23:45.537Z,0.12
2023-07-15T20:25:44.756Z,0.12
2023-07-15T20:27:45.892Z,0.12
2023-07-15T20:29:44.979Z,0.12
2023-07-15T20:31:46.106Z,0.12
2023-07-15T20:33:49.282Z,0.12
2023-07-15T20:35:45.094Z,0.12
2023-07-15T20:37:45.680Z,0.12
2023-07-15T20:39:45.007Z,0.12
2023-07-15T20:43:45.735Z,0.12
2023-07-15T20:45:45.233Z,0.12
2023-07-15T20:47:45.839Z,0.12
2023-07-15T20:49:45.668Z,0.12
2023-07-15T20:51:45.636Z,0.12
2023-07-15T20:53:45.010Z,0.12
2023-07-15T20:55:45.860Z,0.12
2023-07-15T20:57:45.581Z,0.12
2023-07-15T20:59:45.583Z,0.12
2023-07-15T21:01:55.203Z,0.12
2023-07-15T21:03:48.873Z,0.12
2023-07-15T21:05:45.745Z,0.12
2023-07-15T21:07:45.411Z,0.12
2023-07-15T21:09:44.879Z,0.12
2023-07-15T21:11:47.755Z,0.12
2023-07-15T21:13:45.969Z,0.12
2023-07-15T21:15:44.723Z,0.12
2023-07-15T21:17:46.465Z,0.12
2023-07-15T21:19:45.422Z,0.12
2023-07-15T21:21:48.870Z,0.12
2023-07-15T21:23:45.732Z,0.12
2023-07-15T21:25:45.070Z,0.12
2023-07-15T21:27:50.810Z,0.12
2023-07-15T21:29:45.779Z,0.12
2023-07-15T21:31:46.245Z,0.12
2023-07-15T21:33:46.352Z,0.12
2023-07-15T21:35:45.811Z,0.12
2023-07-15T21:37:45.979Z,0.12
2023-07-15T21:39:44.983Z,0.12
2023-07-15T21:41:45.884Z,0.12
2023-07-15T21:43:45.598Z,0.12
2023-07-15T21:45:44.710Z,0.12
2023-07-15T21:47:47.087Z,0.12
2023-07-15T21:49:45.194Z,0.12
2023-07-15T21:51:45.918Z,0.12
2023-07-15T21:53:45.567Z,0.12
2023-07-15T21:55:44.867Z,0.12
2023-07-15T21:57:46.270Z,0.12
2023-07-15T21:59:45.429Z,0.12
2023-07-15T22:01:49.683Z,0.12
2023-07-15T22:03:45.887Z,0.12
2023-07-15T22:05:44.760Z,0.12
2023-07-15T22:07:45.616Z,0.12
2023-07-15T22:09:45.409Z,0.12
2023-07-15T22:11:46.161Z,0.12
2023-07-15T22:13:45.608Z,0.12
2023-07-15T22:15:45.305Z,0.12
2023-07-15T22:17:46.423Z,0.12
2023-07-15T22:21:45.764Z,0.12
2023-07-15T22:23:46.036Z,0.12
2023-07-15T22:25:45.078Z,0.12
2023-07-15T22:27:45.416Z,0.12
2023-07-15T22:29:45.593Z,0.12
2023-07-15T22:31:45.463Z,0.12
2023-07-15T22:33:45.924Z,0.12
2023-07-15T22:35:45.121Z,0.12
2023-07-15T22:37:45.137Z,0.12
2023-07-15T22:39:45.320Z,0.12
2023-07-15T22:41:45.375Z,0.12
2023-07-15T22:43:44.830Z,0.12
2023-07-15T22:45:57.539Z,0.12
2023-07-15T22:47:45.868Z,0.12
2023-07-15T22:49:45.741Z,0.12
2023-07-15T22:51:45.473Z,0.12
2023-07-15T22:53:46.097Z,0.12
2023-07-15T22:55:45.486Z,0.12
2023-07-15T22:57:46.034Z,0.12
2023-07-15T22:59:45.937Z,0.12
2023-07-15T23:01:46.954Z,0.12
2023-07-15T23:03:46.319Z,0.12
2023-07-15T23:05:45.617Z,0.12
2023-07-15T23:07:45.614Z,0.12
2023-07-15T23:09:45.872Z,0.12
2023-07-15T23:11:46.268Z,0.12
2023-07-15T23:13:44.684Z,0.12
2023-07-15T23:15:46.042Z,0.12
2023-07-15T23:19:48.855Z,0.12
2023-07-15T23:21:45.813Z,0.12
2023-07-15T23:24:03.136Z,0.12
2023-07-15T23:25:45.428Z,0.12
2023-07-15T23:27:45.437Z,0.12
2023-07-15T23:29:45.627Z,0.12
2023-07-15T23:31:46.032Z,0.12
2023-07-15T23:33:45.349Z,0.12
2023-07-15T23:35:47.561Z,0.12
2023-07-15T23:37:46.240Z,0.12
2023-07-15T23:39:46.390Z,0.12
2023-07-15T23:41:45.598Z,0.12
2023-07-15T23:43:44.953Z,0.12
2023-07-15T23:45:45.823Z,0.12
2023-07-15T23:47:46.506Z,0.12
2023-07-15T23:49:44.897Z,0.12
2023-07-15T23:51:45.569Z,0.12
2023-07-15T23:53:45.337Z,0.12
2023-07-15T23:55:44.932Z,0.12
2023-07-15T23:57:45.730Z,0.12
2023-07-15T23:59:44.974Z,0.12
